Overton, Nevada Weather observations

Data are for observation ending at time listed.
 Day   Time    Ave.   Ave.  Ave.  Vector   Max.   Stn.    Total    Solar   Ave.  
  of    of     Air    Rel.  Wind   Wind    Wind   Baro.  Precip.   Rad.    Soil  
Year   Day     Temp.  Hum.  Speed  Dir.    Gust   Pres.                    Temp. 
2026   (PST)    F      %     mph   deg.    mph     mb.     in.     W/m2     F   
------------------------------------------------------------------------------
 128   10:20   92.1     8    1.9   202      5.0   966.5    0.00     954    114.6
 128   10:30   92.7     8    1.6   196      4.2   966.4    0.00     965    115.1
 128   10:40   93.0     8    2.6   110      5.6   966.3    0.00     974    113.6
 128   10:50   93.6     8    2.5    66      6.0   966.2    0.00     983    111.8
 128   11:00   94.7     8    3.0   121      5.5   966.1    0.00     991    113.1
 128   11:10   94.7     8    2.4   136      5.3   965.9    0.00     995    114.5
 128   11:20   95.3     8    2.1   137      4.8   965.7    0.00     997    114.7
 128   11:30   95.5     8    2.7   103      6.4   965.6    0.00     997    114.2
 128   11:40   96.5     7    2.2   110      5.5   965.5    0.00     996    114.0
 128   11:50   96.9     7    3.1   100      5.5   965.4    0.00     994    114.0
 128   12:00   97.7     7    3.5   134      7.6   965.3    0.00     990    114.6
 128   12:10   97.8     7    2.5   152      6.9   965.2    0.00     985    116.0
 128   12:20   99.3     7    3.2    74      6.5   965.1    0.00     977    113.1
 128   12:30   98.7     7    3.5    84      7.6   965.0    0.00     967    110.8
 128   12:40   99.4     6    2.4    78      7.5   964.9    0.00     956    109.9
 128   12:50   99.0     7    4.2    92      7.9   964.7    0.00     941    108.2
 128   13:00   99.9     7    3.3    56      6.6   964.6    0.00     927    107.1
 128   13:10  100.7     6    3.1   116      7.0   964.5    0.00     911    106.4
 128   13:20  100.2     6    3.2    59      7.2   964.4    0.00     894    105.6
 128   13:30  101.8     6    1.4   107      5.6   964.2    0.00     876    105.5
 128   13:40  101.3     6    3.2    76      8.8   964.2    0.00     856    104.7
 128   13:50  101.7     6    3.9    86     10.2   964.1    0.00     834    104.4
 128   14:00  101.1     6    5.0   110     11.5   964.0    0.00     811    104.2
 128   14:10  101.5     6    4.5   149      8.8   963.8    0.00     788    104.6
 128   14:20  101.4     6    3.4   111      8.1   963.6    0.00     761    103.9
 128   14:30  102.2     6    1.7   196      4.7   963.5    0.00     736    103.9
 128   14:40  102.1     6    4.4   189     11.3   963.4    0.00     707    104.1
 128   14:50  101.6     6    4.3   176      8.6   963.2    0.00     679    104.1
 128   15:00  102.2     6    4.3   198      8.0   963.1    0.00     218    103.5
 128   15:10  101.7     7    4.3    98     11.2   963.0    0.00     296    103.0
 128   15:20  101.7     6    7.2   171     15.9   962.8    0.00     371    103.4
 128   15:30  101.1     7    7.2   120     13.2   962.7    0.00     555    102.8
 128   15:40  101.4     6    5.2   152     11.2   962.6    0.00     360    102.7
 128   15:50  101.6     6    5.2   131     14.2   962.5    0.00     478    102.2
 128   16:00  101.2     7    5.3   124     13.1   962.4    0.00     449    101.8
 128   16:10  101.3     7    5.2   117     11.6   962.3    0.00     258    101.3
 128   16:20  101.4     7    4.8   125      9.8   962.2    0.00     387    101.0
 128   16:30  100.9     7    5.7   119     12.7   962.1    0.00     353    100.7
 128   16:40  100.7     7    5.1   102      9.8   962.0    0.00     317    100.3
 128   16:50  100.7     7    3.8   112     10.4   961.8    0.00     163    100.0
 128   17:00  100.5     7    4.0   100      8.8   961.8    0.00     248    99.7
 128   17:10  100.5     7    3.6   113      8.6   961.6    0.00     216    99.4
 128   17:20  100.3     8    3.6   109      8.2   961.5    0.00     184    99.0
 128   17:30   99.5     8    3.3    97      6.6   961.4    0.00     153    98.5
 128   17:40   99.5     8    3.4   113      6.9   961.2    0.00     123    98.0
 128   17:50   98.8     8    3.2   108      7.0   961.1    0.00      47    97.5
 128   18:00   98.1     8    2.7   116      6.1   961.1    0.00      32    96.8
 128   18:10   97.0     9    2.9   119      7.2   960.9    0.00      21    96.2
 128   18:20   95.9    10    2.3   128      6.8   960.8    0.00      15    95.4
 128   18:30   95.3     9    2.2   144      6.0   960.7    0.00       9    94.7
 128   18:40   93.8    10    2.6   161      4.5   960.6    0.00       4    94.0
 128   18:50   92.6    10    2.6   154      4.9   960.5    0.00       1    93.3
 128   19:00   92.9    10    1.8   139      3.3   960.4    0.00       0    92.7
 128   19:10   92.0    11    1.6   138      3.1   960.4    0.00       0    92.1
 128   19:20   90.6    11    1.9   160      4.6   960.4    0.00       0    91.6
 128   19:30   91.0    10    2.3   126      4.2   960.4    0.00       0    91.5
 128   19:40   89.8    11    2.6   106      4.5   960.4    0.00       0    90.9
 128   19:50   88.6    11    2.9   114      5.2   960.3    0.00       0    90.3
 128   20:00   88.6    11    2.5   120      4.8   960.3    0.00       0    90.0
 128   20:10   88.3    11    2.7   121      4.8   960.4    0.00       0    89.6
 128   20:20   88.0    11    3.0   123      5.4   960.4    0.00       0    89.2
 128   20:30   87.3    12    1.8   178      4.0   960.5    0.00       0    88.6
 128   20:40   84.3    13    1.8    32      4.8   960.7    0.00       0    87.3
 128   20:50   83.7    13    2.2    29      5.3   960.7    0.00       0    87.0
 128   21:00   82.2    14    2.1    98      3.9   960.7    0.00       0    86.4
 128   21:10   83.5    13    2.0   132      3.7   960.6    0.00       0    86.5
 128   21:20   83.5    13    0.6   235      2.6   960.6    0.00       0    85.6
 128   21:30   81.6    14    0.1   216      1.1   960.6    0.00       0    85.1
 128   21:40   79.0    17    1.3   322      3.1   960.5    0.00       0    83.2
 128   21:50   74.6    21    1.1   334      2.2   960.4    0.00       0    82.2
 128   22:00   73.8    21    2.9   322      5.8   960.4    0.00       0    81.9
 128   22:10   73.5    21    1.3   315      3.8   960.4    0.00       0    81.3
 128   22:20   73.6    20    2.0   318      3.9   960.4    0.00       0    80.8
 128   22:30   73.0    21    1.4   322      2.8   960.4    0.00       0    80.6
 128   22:40   74.1    19    2.4   305      3.6   960.4    0.00       0    80.7
 128   22:50   73.4    20    1.9   306      3.0   960.5    0.00       0    80.0
 128   23:00   72.6    21    0.8   295      2.3   960.4    0.00       0    79.6
 128   23:10   72.1    22    1.1   299      2.3   960.4    0.00       0    79.0
 128   23:20   71.5    22    0.4   305      1.7   960.3    0.00       0    78.7
 128   23:30   69.9    24    2.1   333      3.5   960.3    0.00       0    77.8
 128   23:40   69.0    24    2.2   323      3.1   960.3    0.00       0    77.3
 128   23:50   68.4    25    2.0   329      3.9   960.2    0.00       0    76.6
 129    0:00   67.1    26    2.9   327      5.5   960.3    0.00       0    76.2
 129    0:10   69.2    22    1.9   293      3.1   960.2    0.00       0    76.9
 129    0:20   70.6    20    1.6   245      2.6   960.1    0.00       0    77.3
 129    0:30   70.1    22    0.6   328      3.1   960.2    0.00       0    75.9
 129    0:40   66.1    26    3.6   321      5.3   960.2    0.00       0    75.0
 129    0:50   65.5    25    2.2   304      4.2   960.3    0.00       0    74.4
 129    1:00   65.6    27    0.6   339      1.7   960.3    0.00       0    74.2
 129    1:10   66.6    25    0.1   274      1.2   960.2    0.00       0    75.0
 129    1:20   67.6    24    0.8   308      2.3   960.3    0.00       0    74.3
 129    1:30   64.4    29    2.6   324      4.8   960.4    0.00       0    73.3
 129    1:40   64.2    28    1.0   299      2.8   960.4    0.00       0    73.0
 129    1:50   65.0    26    0.9   315      2.9   960.4    0.00       0    73.3
 129    2:00   65.7    25    0.4   291      2.3   960.4    0.00       0    73.4
 129    2:10   66.3    25    0.1   266      1.5   960.3    0.00       0    73.1
 129    2:20   63.5    29    2.6   322      4.0   960.4    0.00       0    72.1
 129    2:30   62.9    29    2.1   325      3.5   960.5    0.00       0    71.8
 129    2:40   63.1    28    2.3   335      3.7   960.6    0.00       0    71.6
 129    2:50   63.1    28    1.3   334      3.1   960.7    0.00       0    71.7
 129    3:00   63.3    27    2.0   322      3.1   960.7    0.00       0    71.3
 129    3:10   62.2    28    1.7   334      3.2   960.7    0.00       0    70.6
 129    3:20   63.1    27    1.3   352      2.3   960.7    0.00       0    71.0
 129    3:30   63.4    27    1.8   327      3.9   960.7    0.00       0    71.2
 129    3:40   62.8    27    2.6   325      4.7   960.7    0.00       0    70.3
 129    3:50   62.9    25    1.6   305      2.9   960.7    0.00       0    70.4
 129    4:00   62.1    27    1.0   317      3.4   960.9    0.00       0    70.2
 129    4:10   64.6    23    1.8   291      3.5   960.9    0.00       0    71.1
 129    4:20   65.6    22    2.4   296      4.7   961.1    0.00       0    70.9
 129    4:30   64.8    22    0.8   287      3.9   961.3    0.00       1    70.7
 129    4:40   64.9    22    0.9   338      2.9   961.6    0.00       4    70.3
 129    4:50   63.7    23    1.2   275      3.7   961.7    0.00      10    70.7
 129    5:00   66.1    20    0.5   257      1.9   961.8    0.00      30    72.2
 129    5:10   65.7    22    0.8   314      2.2   962.0    0.00      61    73.3
 129    5:20   64.3    25    2.1   317      3.5   962.1    0.00      89    75.5
 129    5:30   66.0    23    1.0   323      2.0   962.4    0.00     117    77.2
 129    5:40   65.9    26    3.4   328      6.3   962.6    0.00     148    77.9
 129    5:50   68.4    20    3.3   308      5.0   962.8    0.00     180    80.8
 129    6:00   70.8    20    2.1   325      3.7   963.2    0.00     214    82.0
 129    6:10   71.1    20    2.1   313      4.2   963.5    0.00     249    83.1
 129    6:20   72.6    17    3.0   313      4.1   963.7    0.00     284    83.5
 129    6:30   74.9    20    1.7     8      2.6   963.9    0.00     319    84.2
 129    6:40   77.6    17    0.2    13      1.3   964.1    0.00     356    87.4
 129    6:50   79.0    16    0.4   355      2.1   964.2    0.00     392    89.0
 129    7:00   79.6    16    2.7    13      4.3   964.4    0.00     427    90.0
 129    7:10   79.9    14    2.1   347      4.1   964.6    0.00     462    92.0
 129    7:20   82.3    12    1.3   346      4.0   964.8    0.00     498    95.0
 129    7:30   83.1    11    2.5   354      4.7   964.9    0.00     532    96.2
 129    7:40   83.9    10    3.3   352      5.1   965.1    0.00     565    97.4
 129    7:50   84.7    10    2.2   354      4.5   965.1    0.00     597    100.0
 129    8:00   85.8     9    2.0     1      3.6   965.2    0.00     628    102.1
 129    8:10   87.1     9    2.3    17      4.1   965.3    0.00     658    104.0
 129    8:20   87.5     9    1.9     6      3.9   965.4    0.00     688    105.5
 129    8:30   87.5     8    2.1   345      5.2   965.5    0.00     718    106.4
 129    8:40   88.6     8    1.8   352      4.2   965.5    0.00     746    107.9
 129    8:50   89.9     8    1.0    20      2.6   965.6    0.00     772    109.3
 129    9:00   90.6     8    2.1   257      4.6   965.7    0.00     798    111.6
 129    9:10   90.4     8    1.8   204      5.0   965.7    0.00     821    114.6
 129    9:20   92.2     8    0.7   254      4.1   965.8    0.00     844    114.4
 129    9:30   92.6     8    2.5   247      5.5   965.9    0.00     864    116.1
 129    9:40   92.4     8    2.0   205      5.2   965.9    0.00     885    117.6
 129    9:50   92.5     8    3.1   257      5.4   965.9    0.00     903    117.7
 129   10:00   94.3     8    1.5   190      5.5   965.9    0.00     919    118.0
 129   10:10   94.7     7    1.4   191      4.2   965.9    0.00     935    118.4

Return to Overton, Nevada graphs page.


Western Regional Climate Center,wrcc@dri.edu